sensor_id;sensor_type;location;lat;lon;timestamp;P1;durP1;ratioP1;P2;durP2;ratioP2
11988;SDS011;6054;50.966;7.094;2024-02-26T00:01:31;0.90;;;0.65;;
11988;SDS011;6054;50.966;7.094;2024-02-26T00:03:59;1.45;;;0.70;;
11988;SDS011;6054;50.966;7.094;2024-02-26T00:06:27;0.73;;;0.70;;
11988;SDS011;6054;50.966;7.094;2024-02-26T00:08:56;1.05;;;1.00;;
11988;SDS011;6054;50.966;7.094;2024-02-26T00:11:23;1.13;;;0.70;;
11988;SDS011;6054;50.966;7.094;2024-02-26T00:13:52;0.70;;;0.70;;
11988;SDS011;6054;50.966;7.094;2024-02-26T00:16:20;1.00;;;0.90;;
11988;SDS011;6054;50.966;7.094;2024-02-26T00:18:47;0.88;;;0.80;;
11988;SDS011;6054;50.966;7.094;2024-02-26T00:21:15;2.35;;;0.80;;
11988;SDS011;6054;50.966;7.094;2024-02-26T00:23:42;1.70;;;0.85;;
11988;SDS011;6054;50.966;7.094;2024-02-26T00:26:09;0.57;;;0.57;;
11988;SDS011;6054;50.966;7.094;2024-02-26T00:28:37;0.95;;;0.95;;
11988;SDS011;6054;50.966;7.094;2024-02-26T00:31:06;1.55;;;0.70;;
11988;SDS011;6054;50.966;7.094;2024-02-26T00:33:33;1.13;;;0.80;;
11988;SDS011;6054;50.966;7.094;2024-02-26T00:36:00;1.17;;;0.60;;
11988;SDS011;6054;50.966;7.094;2024-02-26T00:38:27;1.15;;;0.70;;
11988;SDS011;6054;50.966;7.094;2024-02-26T00:40:54;0.60;;;0.60;;
11988;SDS011;6054;50.966;7.094;2024-02-26T00:43:21;0.75;;;0.68;;
11988;SDS011;6054;50.966;7.094;2024-02-26T00:45:48;0.75;;;0.75;;
11988;SDS011;6054;50.966;7.094;2024-02-26T00:48:18;1.75;;;0.50;;
11988;SDS011;6054;50.966;7.094;2024-02-26T00:50:46;1.02;;;0.60;;
11988;SDS011;6054;50.966;7.094;2024-02-26T00:53:13;1.48;;;0.65;;
11988;SDS011;6054;50.966;7.094;2024-02-26T00:55:40;0.50;;;0.50;;
11988;SDS011;6054;50.966;7.094;2024-02-26T00:58:07;0.57;;;0.57;;
11988;SDS011;6054;50.966;7.094;2024-02-26T01:00:35;0.70;;;0.70;;
11988;SDS011;6054;50.966;7.094;2024-02-26T01:03:02;1.75;;;0.68;;
11988;SDS011;6054;50.966;7.094;2024-02-26T01:05:31;0.75;;;0.65;;
11988;SDS011;6054;50.966;7.094;2024-02-26T01:07:58;0.68;;;0.47;;
11988;SDS011;6054;50.966;7.094;2024-02-26T01:10:25;0.47;;;0.40;;
11988;SDS011;6054;50.966;7.094;2024-02-26T01:12:52;0.95;;;0.80;;
11988;SDS011;6054;50.966;7.094;2024-02-26T01:15:19;1.85;;;0.60;;
11988;SDS011;6054;50.966;7.094;2024-02-26T01:17:48;0.50;;;0.50;;
11988;SDS011;6054;50.966;7.094;2024-02-26T01:20:15;2.45;;;0.77;;
11988;SDS011;6054;50.966;7.094;2024-02-26T01:22:44;0.70;;;0.70;;
11988;SDS011;6054;50.966;7.094;2024-02-26T01:25:11;0.50;;;0.43;;
11988;SDS011;6054;50.966;7.094;2024-02-26T01:27:39;0.52;;;0.52;;
11988;SDS011;6054;50.966;7.094;2024-02-26T01:30:09;0.40;;;0.40;;
11988;SDS011;6054;50.966;7.094;2024-02-26T01:32:37;0.63;;;0.60;;
11988;SDS011;6054;50.966;7.094;2024-02-26T01:35:04;0.50;;;0.50;;
11988;SDS011;6054;50.966;7.094;2024-02-26T01:37:35;0.60;;;0.52;;
11988;SDS011;6054;50.966;7.094;2024-02-26T01:40:03;0.70;;;0.70;;
11988;SDS011;6054;50.966;7.094;2024-02-26T01:42:32;0.60;;;0.40;;
11988;SDS011;6054;50.966;7.094;2024-02-26T01:44:59;0.43;;;0.43;;
11988;SDS011;6054;50.966;7.094;2024-02-26T01:47:26;2.13;;;0.68;;
11988;SDS011;6054;50.966;7.094;2024-02-26T01:49:54;0.93;;;0.80;;
11988;SDS011;6054;50.966;7.094;2024-02-26T01:52:21;0.82;;;0.50;;
11988;SDS011;6054;50.966;7.094;2024-02-26T01:54:48;0.47;;;0.47;;
11988;SDS011;6054;50.966;7.094;2024-02-26T01:57:18;0.50;;;0.50;;
11988;SDS011;6054;50.966;7.094;2024-02-26T01:59:45;0.77;;;0.57;;
11988;SDS011;6054;50.966;7.094;2024-02-26T02:02:12;0.82;;;0.60;;
11988;SDS011;6054;50.966;7.094;2024-02-26T02:04:41;0.88;;;0.70;;
11988;SDS011;6054;50.966;7.094;2024-02-26T02:07:08;1.27;;;0.60;;
11988;SDS011;6054;50.966;7.094;2024-02-26T02:09:35;0.77;;;0.57;;
11988;SDS011;6054;50.966;7.094;2024-02-26T02:12:04;0.68;;;0.60;;
11988;SDS011;6054;50.966;7.094;2024-02-26T02:14:33;0.50;;;0.50;;
11988;SDS011;6054;50.966;7.094;2024-02-26T02:17:00;1.55;;;0.77;;
11988;SDS011;6054;50.966;7.094;2024-02-26T02:19:27;0.57;;;0.30;;
11988;SDS011;6054;50.966;7.094;2024-02-26T02:21:55;0.60;;;0.60;;
11988;SDS011;6054;50.966;7.094;2024-02-26T02:24:22;1.83;;;0.60;;
11988;SDS011;6054;50.966;7.094;2024-02-26T02:26:49;0.77;;;0.70;;
11988;SDS011;6054;50.966;7.094;2024-02-26T02:29:17;0.75;;;0.60;;
11988;SDS011;6054;50.966;7.094;2024-02-26T02:31:44;1.70;;;0.73;;
11988;SDS011;6054;50.966;7.094;2024-02-26T02:34:11;0.50;;;0.47;;
11988;SDS011;6054;50.966;7.094;2024-02-26T02:36:48;0.60;;;0.60;;
11988;SDS011;6054;50.966;7.094;2024-02-26T02:39:17;0.80;;;0.80;;
11988;SDS011;6054;50.966;7.094;2024-02-26T02:41:43;0.50;;;0.50;;
11988;SDS011;6054;50.966;7.094;2024-02-26T02:44:10;0.50;;;0.50;;
11988;SDS011;6054;50.966;7.094;2024-02-26T02:46:37;0.40;;;0.40;;
11988;SDS011;6054;50.966;7.094;2024-02-26T02:49:07;0.75;;;0.40;;
11988;SDS011;6054;50.966;7.094;2024-02-26T02:51:35;0.30;;;0.30;;
11988;SDS011;6054;50.966;7.094;2024-02-26T02:54:02;0.40;;;0.40;;
11988;SDS011;6054;50.966;7.094;2024-02-26T02:56:31;0.60;;;0.60;;
11988;SDS011;6054;50.966;7.094;2024-02-26T02:58:58;1.65;;;0.52;;
11988;SDS011;6054;50.966;7.094;2024-02-26T03:01:24;0.98;;;0.45;;
11988;SDS011;6054;50.966;7.094;2024-02-26T03:03:52;0.60;;;0.60;;
11988;SDS011;6054;50.966;7.094;2024-02-26T03:06:19;1.00;;;0.50;;
11988;SDS011;6054;50.966;7.094;2024-02-26T03:08:47;0.60;;;0.60;;
11988;SDS011;6054;50.966;7.094;2024-02-26T03:11:14;0.40;;;0.40;;
11988;SDS011;6054;50.966;7.094;2024-02-26T03:13:43;0.60;;;0.60;;
11988;SDS011;6054;50.966;7.094;2024-02-26T03:16:11;0.40;;;0.40;;
11988;SDS011;6054;50.966;7.094;2024-02-26T03:18:38;0.60;;;0.47;;
11988;SDS011;6054;50.966;7.094;2024-02-26T03:21:05;0.32;;;0.32;;
11988;SDS011;6054;50.966;7.094;2024-02-26T03:23:32;0.60;;;0.60;;
11988;SDS011;6054;50.966;7.094;2024-02-26T03:26:03;1.77;;;0.60;;
11988;SDS011;6054;50.966;7.094;2024-02-26T03:28:30;1.85;;;0.73;;
11988;SDS011;6054;50.966;7.094;2024-02-26T03:30:59;0.38;;;0.38;;
11988;SDS011;6054;50.966;7.094;2024-02-26T03:33:27;1.48;;;0.77;;
11988;SDS011;6054;50.966;7.094;2024-02-26T03:35:54;1.95;;;0.60;;
11988;SDS011;6054;50.966;7.094;2024-02-26T03:38:20;1.85;;;0.70;;
11988;SDS011;6054;50.966;7.094;2024-02-26T03:40:47;0.85;;;0.70;;
11988;SDS011;6054;50.966;7.094;2024-02-26T03:43:14;0.90;;;0.68;;
11988;SDS011;6054;50.966;7.094;2024-02-26T03:45:42;0.90;;;0.60;;
11988;SDS011;6054;50.966;7.094;2024-02-26T03:48:11;2.22;;;0.70;;
11988;SDS011;6054;50.966;7.094;2024-02-26T03:50:38;0.50;;;0.50;;
11988;SDS011;6054;50.966;7.094;2024-02-26T03:53:04;0.40;;;0.40;;
11988;SDS011;6054;50.966;7.094;2024-02-26T03:55:34;0.50;;;0.50;;
11988;SDS011;6054;50.966;7.094;2024-02-26T03:58:00;0.47;;;0.47;;
11988;SDS011;6054;50.966;7.094;2024-02-26T04:00:28;2.03;;;0.70;;
11988;SDS011;6054;50.966;7.094;2024-02-26T04:02:55;2.08;;;0.63;;
11988;SDS011;6054;50.966;7.094;2024-02-26T04:05:23;0.80;;;0.57;;
11988;SDS011;6054;50.966;7.094;2024-02-26T04:07:50;1.65;;;0.60;;
11988;SDS011;6054;50.966;7.094;2024-02-26T04:10:17;0.70;;;0.70;;
11988;SDS011;6054;50.966;7.094;2024-02-26T04:12:44;0.57;;;0.57;;
11988;SDS011;6054;50.966;7.094;2024-02-26T04:15:11;0.60;;;0.60;;
11988;SDS011;6054;50.966;7.094;2024-02-26T04:17:38;1.38;;;0.60;;
11988;SDS011;6054;50.966;7.094;2024-02-26T04:20:06;2.58;;;0.77;;
11988;SDS011;6054;50.966;7.094;2024-02-26T04:22:36;0.82;;;0.52;;
11988;SDS011;6054;50.966;7.094;2024-02-26T04:25:03;0.50;;;0.50;;
11988;SDS011;6054;50.966;7.094;2024-02-26T04:27:30;1.85;;;0.52;;
11988;SDS011;6054;50.966;7.094;2024-02-26T04:29:56;1.85;;;0.70;;
11988;SDS011;6054;50.966;7.094;2024-02-26T04:32:23;0.95;;;0.70;;
11988;SDS011;6054;50.966;7.094;2024-02-26T04:34:50;0.75;;;0.75;;
11988;SDS011;6054;50.966;7.094;2024-02-26T04:37:17;0.45;;;0.40;;
11988;SDS011;6054;50.966;7.094;2024-02-26T04:39:45;1.17;;;0.60;;
11988;SDS011;6054;50.966;7.094;2024-02-26T04:42:12;2.45;;;0.80;;
11988;SDS011;6054;50.966;7.094;2024-02-26T04:44:39;3.20;;;0.60;;
11988;SDS011;6054;50.966;7.094;2024-02-26T04:47:05;2.47;;;0.75;;
11988;SDS011;6054;50.966;7.094;2024-02-26T04:49:32;1.73;;;0.68;;
11988;SDS011;6054;50.966;7.094;2024-02-26T04:52:00;0.93;;;0.80;;
11988;SDS011;6054;50.966;7.094;2024-02-26T04:54:26;0.88;;;0.73;;
11988;SDS011;6054;50.966;7.094;2024-02-26T04:56:55;0.63;;;0.63;;
11988;SDS011;6054;50.966;7.094;2024-02-26T04:59:21;0.80;;;0.57;;
11988;SDS011;6054;50.966;7.094;2024-02-26T05:01:48;1.42;;;0.70;;
11988;SDS011;6054;50.966;7.094;2024-02-26T05:04:17;1.30;;;0.68;;
11988;SDS011;6054;50.966;7.094;2024-02-26T05:06:44;1.85;;;0.52;;
11988;SDS011;6054;50.966;7.094;2024-02-26T05:09:11;1.45;;;0.82;;
11988;SDS011;6054;50.966;7.094;2024-02-26T05:11:38;3.08;;;0.68;;
11988;SDS011;6054;50.966;7.094;2024-02-26T05:14:06;0.98;;;0.90;;
11988;SDS011;6054;50.966;7.094;2024-02-26T05:16:34;0.70;;;0.70;;
11988;SDS011;6054;50.966;7.094;2024-02-26T05:19:01;0.90;;;0.80;;
11988;SDS011;6054;50.966;7.094;2024-02-26T05:21:28;0.63;;;0.63;;
11988;SDS011;6054;50.966;7.094;2024-02-26T05:23:54;1.25;;;0.80;;
11988;SDS011;6054;50.966;7.094;2024-02-26T05:26:21;0.70;;;0.70;;
11988;SDS011;6054;50.966;7.094;2024-02-26T05:28:49;0.65;;;0.63;;
11988;SDS011;6054;50.966;7.094;2024-02-26T05:31:18;1.15;;;0.90;;
11988;SDS011;6054;50.966;7.094;2024-02-26T05:33:48;0.70;;;0.70;;
11988;SDS011;6054;50.966;7.094;2024-02-26T05:36:18;1.88;;;0.90;;
11988;SDS011;6054;50.966;7.094;2024-02-26T05:38:47;1.08;;;0.80;;
11988;SDS011;6054;50.966;7.094;2024-02-26T05:41:14;1.02;;;0.80;;
11988;SDS011;6054;50.966;7.094;2024-02-26T05:43:41;0.93;;;0.60;;
11988;SDS011;6054;50.966;7.094;2024-02-26T05:46:08;0.70;;;0.70;;
11988;SDS011;6054;50.966;7.094;2024-02-26T05:48:36;1.75;;;0.70;;
11988;SDS011;6054;50.966;7.094;2024-02-26T05:51:03;0.75;;;0.75;;
11988;SDS011;6054;50.966;7.094;2024-02-26T05:53:31;2.67;;;0.98;;
11988;SDS011;6054;50.966;7.094;2024-02-26T05:55:59;1.00;;;0.70;;
11988;SDS011;6054;50.966;7.094;2024-02-26T05:58:25;1.10;;;0.80;;
11988;SDS011;6054;50.966;7.094;2024-02-26T06:00:52;2.25;;;0.88;;
11988;SDS011;6054;50.966;7.094;2024-02-26T06:03:19;1.05;;;0.75;;
11988;SDS011;6054;50.966;7.094;2024-02-26T06:05:48;1.15;;;0.90;;
11988;SDS011;6054;50.966;7.094;2024-02-26T06:08:15;4.70;;;0.98;;
11988;SDS011;6054;50.966;7.094;2024-02-26T06:10:42;0.68;;;0.68;;
11988;SDS011;6054;50.966;7.094;2024-02-26T06:13:09;2.40;;;0.80;;
11988;SDS011;6054;50.966;7.094;2024-02-26T06:15:35;0.70;;;0.70;;
11988;SDS011;6054;50.966;7.094;2024-02-26T06:18:02;1.42;;;1.00;;
11988;SDS011;6054;50.966;7.094;2024-02-26T06:20:29;1.63;;;0.77;;
11988;SDS011;6054;50.966;7.094;2024-02-26T06:22:57;2.78;;;1.08;;
11988;SDS011;6054;50.966;7.094;2024-02-26T06:25:24;1.38;;;0.98;;
11988;SDS011;6054;50.966;7.094;2024-02-26T06:27:51;1.25;;;1.15;;
11988;SDS011;6054;50.966;7.094;2024-02-26T06:30:18;1.30;;;1.10;;
11988;SDS011;6054;50.966;7.094;2024-02-26T06:32:45;2.28;;;1.00;;
11988;SDS011;6054;50.966;7.094;2024-02-26T06:35:12;1.20;;;1.10;;
11988;SDS011;6054;50.966;7.094;2024-02-26T06:37:38;1.13;;;1.02;;
11988;SDS011;6054;50.966;7.094;2024-02-26T06:40:08;3.08;;;1.70;;
11988;SDS011;6054;50.966;7.094;2024-02-26T06:42:35;2.15;;;1.23;;
11988;SDS011;6054;50.966;7.094;2024-02-26T06:45:02;1.70;;;1.30;;
11988;SDS011;6054;50.966;7.094;2024-02-26T06:47:30;1.30;;;1.20;;
11988;SDS011;6054;50.966;7.094;2024-02-26T06:49:56;1.92;;;1.00;;
11988;SDS011;6054;50.966;7.094;2024-02-26T06:52:24;2.10;;;1.00;;
11988;SDS011;6054;50.966;7.094;2024-02-26T06:54:51;1.73;;;0.93;;
11988;SDS011;6054;50.966;7.094;2024-02-26T06:57:20;1.20;;;1.10;;
11988;SDS011;6054;50.966;7.094;2024-02-26T06:59:47;1.10;;;1.00;;
11988;SDS011;6054;50.966;7.094;2024-02-26T07:02:15;2.92;;;1.05;;
11988;SDS011;6054;50.966;7.094;2024-02-26T07:04:42;1.10;;;1.00;;
11988;SDS011;6054;50.966;7.094;2024-02-26T07:07:09;0.93;;;0.90;;
11988;SDS011;6054;50.966;7.094;2024-02-26T07:09:36;0.93;;;0.90;;
11988;SDS011;6054;50.966;7.094;2024-02-26T07:12:03;1.38;;;1.08;;
11988;SDS011;6054;50.966;7.094;2024-02-26T07:14:32;1.42;;;1.10;;
11988;SDS011;6054;50.966;7.094;2024-02-26T07:16:59;2.35;;;1.20;;
11988;SDS011;6054;50.966;7.094;2024-02-26T07:19:26;0.82;;;0.82;;
11988;SDS011;6054;50.966;7.094;2024-02-26T07:21:53;2.03;;;0.93;;
11988;SDS011;6054;50.966;7.094;2024-02-26T07:24:21;2.05;;;1.10;;
11988;SDS011;6054;50.966;7.094;2024-02-26T07:26:49;2.78;;;1.23;;
11988;SDS011;6054;50.966;7.094;2024-02-26T07:29:16;1.15;;;0.80;;
11988;SDS011;6054;50.966;7.094;2024-02-26T07:31:44;1.15;;;1.02;;
11988;SDS011;6054;50.966;7.094;2024-02-26T07:34:12;1.75;;;1.02;;
11988;SDS011;6054;50.966;7.094;2024-02-26T07:36:39;0.90;;;0.90;;
11988;SDS011;6054;50.966;7.094;2024-02-26T07:39:06;2.00;;;1.10;;
11988;SDS011;6054;50.966;7.094;2024-02-26T07:41:36;1.13;;;1.10;;
11988;SDS011;6054;50.966;7.094;2024-02-26T07:44:04;1.90;;;1.20;;
11988;SDS011;6054;50.966;7.094;2024-02-26T07:46:31;4.03;;;1.55;;
11988;SDS011;6054;50.966;7.094;2024-02-26T07:48:59;2.58;;;1.00;;
11988;SDS011;6054;50.966;7.094;2024-02-26T07:51:26;1.58;;;1.35;;
11988;SDS011;6054;50.966;7.094;2024-02-26T07:53:53;3.08;;;1.38;;
11988;SDS011;6054;50.966;7.094;2024-02-26T07:56:20;0.85;;;0.85;;
11988;SDS011;6054;50.966;7.094;2024-02-26T07:58:47;1.10;;;1.00;;
11988;SDS011;6054;50.966;7.094;2024-02-26T08:01:14;1.75;;;1.08;;
11988;SDS011;6054;50.966;7.094;2024-02-26T08:03:42;1.00;;;1.00;;
11988;SDS011;6054;50.966;7.094;2024-02-26T08:06:11;1.35;;;1.02;;
11988;SDS011;6054;50.966;7.094;2024-02-26T08:08:37;0.80;;;0.80;;
11988;SDS011;6054;50.966;7.094;2024-02-26T08:11:05;0.80;;;0.80;;
11988;SDS011;6054;50.966;7.094;2024-02-26T08:13:33;2.17;;;1.10;;
11988;SDS011;6054;50.966;7.094;2024-02-26T08:16:00;0.93;;;0.90;;
11988;SDS011;6054;50.966;7.094;2024-02-26T08:18:27;0.88;;;0.88;;
11988;SDS011;6054;50.966;7.094;2024-02-26T08:20:54;1.67;;;1.20;;
11988;SDS011;6054;50.966;7.094;2024-02-26T08:23:23;1.70;;;1.00;;
11988;SDS011;6054;50.966;7.094;2024-02-26T08:25:51;1.27;;;1.17;;
11988;SDS011;6054;50.966;7.094;2024-02-26T08:28:19;1.05;;;0.90;;
11988;SDS011;6054;50.966;7.094;2024-02-26T08:30:45;1.05;;;1.05;;
11988;SDS011;6054;50.966;7.094;2024-02-26T08:33:14;1.60;;;1.25;;
11988;SDS011;6054;50.966;7.094;2024-02-26T08:35:41;1.10;;;1.00;;
11988;SDS011;6054;50.966;7.094;2024-02-26T08:38:07;1.27;;;1.10;;
11988;SDS011;6054;50.966;7.094;2024-02-26T08:40:36;1.25;;;1.15;;
11988;SDS011;6054;50.966;7.094;2024-02-26T08:43:03;2.67;;;1.25;;
11988;SDS011;6054;50.966;7.094;2024-02-26T08:45:30;1.10;;;1.00;;
11988;SDS011;6054;50.966;7.094;2024-02-26T08:47:57;2.83;;;1.13;;
11988;SDS011;6054;50.966;7.094;2024-02-26T08:50:24;1.05;;;1.05;;
11988;SDS011;6054;50.966;7.094;2024-02-26T08:52:51;1.27;;;1.17;;
11988;SDS011;6054;50.966;7.094;2024-02-26T08:55:18;3.00;;;0.90;;
11988;SDS011;6054;50.966;7.094;2024-02-26T08:57:47;1.17;;;0.90;;
11988;SDS011;6054;50.966;7.094;2024-02-26T09:00:14;1.30;;;1.20;;
11988;SDS011;6054;50.966;7.094;2024-02-26T09:02:43;1.30;;;1.20;;
11988;SDS011;6054;50.966;7.094;2024-02-26T09:05:12;1.42;;;1.33;;
11988;SDS011;6054;50.966;7.094;2024-02-26T09:07:39;0.93;;;0.93;;
11988;SDS011;6054;50.966;7.094;2024-02-26T09:10:06;2.58;;;1.15;;
11988;SDS011;6054;50.966;7.094;2024-02-26T09:12:35;1.52;;;0.90;;
11988;SDS011;6054;50.966;7.094;2024-02-26T09:15:04;1.70;;;1.38;;
11988;SDS011;6054;50.966;7.094;2024-02-26T09:17:32;1.55;;;1.33;;
11988;SDS011;6054;50.966;7.094;2024-02-26T09:19:59;1.50;;;1.13;;
11988;SDS011;6054;50.966;7.094;2024-02-26T09:22:26;2.92;;;1.20;;
11988;SDS011;6054;50.966;7.094;2024-02-26T09:25:04;3.95;;;1.35;;
11988;SDS011;6054;50.966;7.094;2024-02-26T09:27:31;2.25;;;1.50;;
11988;SDS011;6054;50.966;7.094;2024-02-26T09:30:00;1.63;;;1.50;;
11988;SDS011;6054;50.966;7.094;2024-02-26T09:32:28;1.42;;;1.30;;
11988;SDS011;6054;50.966;7.094;2024-02-26T09:34:56;1.65;;;1.33;;
11988;SDS011;6054;50.966;7.094;2024-02-26T09:37:22;1.75;;;1.10;;
11988;SDS011;6054;50.966;7.094;2024-02-26T09:39:49;1.40;;;1.13;;
11988;SDS011;6054;50.966;7.094;2024-02-26T09:42:17;3.22;;;1.50;;
11988;SDS011;6054;50.966;7.094;2024-02-26T09:44:45;1.42;;;1.33;;
11988;SDS011;6054;50.966;7.094;2024-02-26T09:47:13;1.40;;;1.30;;
11988;SDS011;6054;50.966;7.094;2024-02-26T09:49:43;1.83;;;1.23;;
11988;SDS011;6054;50.966;7.094;2024-02-26T09:52:12;1.15;;;1.13;;
11988;SDS011;6054;50.966;7.094;2024-02-26T09:54:41;1.27;;;1.17;;
11988;SDS011;6054;50.966;7.094;2024-02-26T09:57:09;1.42;;;1.17;;
11988;SDS011;6054;50.966;7.094;2024-02-26T09:59:41;1.30;;;1.20;;
11988;SDS011;6054;50.966;7.094;2024-02-26T10:02:09;1.63;;;1.50;;
11988;SDS011;6054;50.966;7.094;2024-02-26T10:04:40;4.07;;;1.50;;
11988;SDS011;6054;50.966;7.094;2024-02-26T10:07:11;1.92;;;1.30;;
11988;SDS011;6054;50.966;7.094;2024-02-26T10:09:39;1.77;;;1.58;;
11988;SDS011;6054;50.966;7.094;2024-02-26T10:12:06;1.95;;;1.40;;
11988;SDS011;6054;50.966;7.094;2024-02-26T10:14:36;2.50;;;1.50;;
11988;SDS011;6054;50.966;7.094;2024-02-26T10:17:03;2.38;;;1.30;;
11988;SDS011;6054;50.966;7.094;2024-02-26T10:19:33;2.45;;;1.50;;
11988;SDS011;6054;50.966;7.094;2024-02-26T10:22:00;1.40;;;1.30;;
11988;SDS011;6054;50.966;7.094;2024-02-26T10:24:29;3.45;;;1.75;;
11988;SDS011;6054;50.966;7.094;2024-02-26T10:26:57;1.70;;;1.52;;
11988;SDS011;6054;50.966;7.094;2024-02-26T10:29:24;1.58;;;1.48;;
11988;SDS011;6054;50.966;7.094;2024-02-26T10:31:52;2.42;;;1.75;;
11988;SDS011;6054;50.966;7.094;2024-02-26T10:34:19;2.00;;;1.50;;
11988;SDS011;6054;50.966;7.094;2024-02-26T10:36:46;1.83;;;1.42;;
11988;SDS011;6054;50.966;7.094;2024-02-26T10:39:13;1.73;;;1.42;;
11988;SDS011;6054;50.966;7.094;2024-02-26T10:41:42;2.65;;;1.25;;
11988;SDS011;6054;50.966;7.094;2024-02-26T10:44:10;1.50;;;1.40;;
11988;SDS011;6054;50.966;7.094;2024-02-26T10:46:38;1.70;;;1.60;;
11988;SDS011;6054;50.966;7.094;2024-02-26T10:49:07;1.65;;;1.40;;
11988;SDS011;6054;50.966;7.094;2024-02-26T10:51:39;1.88;;;1.65;;
11988;SDS011;6054;50.966;7.094;2024-02-26T10:54:11;2.03;;;1.70;;
11988;SDS011;6054;50.966;7.094;2024-02-26T10:56:44;1.40;;;1.30;;
11988;SDS011;6054;50.966;7.094;2024-02-26T10:59:14;1.75;;;1.40;;
11988;SDS011;6054;50.966;7.094;2024-02-26T11:01:45;1.83;;;1.50;;
11988;SDS011;6054;50.966;7.094;2024-02-26T11:04:15;1.60;;;1.50;;
11988;SDS011;6054;50.966;7.094;2024-02-26T11:06:42;2.10;;;1.40;;
11988;SDS011;6054;50.966;7.094;2024-02-26T11:09:11;2.13;;;1.50;;
11988;SDS011;6054;50.966;7.094;2024-02-26T11:11:40;1.70;;;1.60;;
11988;SDS011;6054;50.966;7.094;2024-02-26T11:14:09;2.72;;;1.67;;
11988;SDS011;6054;50.966;7.094;2024-02-26T11:16:39;2.90;;;1.52;;
11988;SDS011;6054;50.966;7.094;2024-02-26T11:19:08;3.05;;;1.58;;
11988;SDS011;6054;50.966;7.094;2024-02-26T11:21:35;1.65;;;1.55;;
11988;SDS011;6054;50.966;7.094;2024-02-26T11:24:06;1.45;;;1.35;;
11988;SDS011;6054;50.966;7.094;2024-02-26T11:26:35;1.58;;;1.48;;
11988;SDS011;6054;50.966;7.094;2024-02-26T11:29:07;3.40;;;1.83;;
11988;SDS011;6054;50.966;7.094;2024-02-26T11:31:38;1.60;;;1.50;;
11988;SDS011;6054;50.966;7.094;2024-02-26T11:34:06;2.45;;;1.55;;
11988;SDS011;6054;50.966;7.094;2024-02-26T11:36:33;2.47;;;1.60;;
11988;SDS011;6054;50.966;7.094;2024-02-26T11:39:02;1.65;;;1.52;;
11988;SDS011;6054;50.966;7.094;2024-02-26T11:41:30;1.65;;;1.55;;
11988;SDS011;6054;50.966;7.094;2024-02-26T11:43:57;2.30;;;1.60;;
11988;SDS011;6054;50.966;7.094;2024-02-26T11:46:27;2.13;;;1.60;;
11988;SDS011;6054;50.966;7.094;2024-02-26T11:48:56;3.88;;;2.10;;
11988;SDS011;6054;50.966;7.094;2024-02-26T11:51:25;2.70;;;1.73;;
11988;SDS011;6054;50.966;7.094;2024-02-26T11:53:53;2.05;;;1.75;;
11988;SDS011;6054;50.966;7.094;2024-02-26T11:56:22;2.30;;;1.95;;
11988;SDS011;6054;50.966;7.094;2024-02-26T11:58:53;1.83;;;1.70;;
11988;SDS011;6054;50.966;7.094;2024-02-26T12:01:40;2.40;;;1.70;;
11988;SDS011;6054;50.966;7.094;2024-02-26T12:04:13;2.13;;;1.70;;
11988;SDS011;6054;50.966;7.094;2024-02-26T12:06:44;2.00;;;1.80;;
11988;SDS011;6054;50.966;7.094;2024-02-26T12:09:13;2.05;;;1.85;;
11988;SDS011;6054;50.966;7.094;2024-02-26T12:11:55;2.20;;;1.80;;
11988;SDS011;6054;50.966;7.094;2024-02-26T12:14:24;1.98;;;1.77;;
11988;SDS011;6054;50.966;7.094;2024-02-26T12:16:53;2.63;;;1.85;;
11988;SDS011;6054;50.966;7.094;2024-02-26T12:19:23;2.00;;;1.80;;
11988;SDS011;6054;50.966;7.094;2024-02-26T12:21:51;2.70;;;1.92;;
11988;SDS011;6054;50.966;7.094;2024-02-26T12:24:19;1.88;;;1.70;;
11988;SDS011;6054;50.966;7.094;2024-02-26T12:26:46;2.47;;;1.55;;
11988;SDS011;6054;50.966;7.094;2024-02-26T12:29:13;5.00;;;1.80;;
11988;SDS011;6054;50.966;7.094;2024-02-26T12:31:40;3.42;;;1.70;;
11988;SDS011;6054;50.966;7.094;2024-02-26T12:34:09;3.28;;;2.00;;
11988;SDS011;6054;50.966;7.094;2024-02-26T12:36:36;4.43;;;1.75;;
11988;SDS011;6054;50.966;7.094;2024-02-26T12:39:03;2.53;;;1.95;;
11988;SDS011;6054;50.966;7.094;2024-02-26T12:41:31;2.10;;;1.88;;
11988;SDS011;6054;50.966;7.094;2024-02-26T12:43:58;2.65;;;1.42;;
11988;SDS011;6054;50.966;7.094;2024-02-26T12:46:25;2.00;;;1.83;;
11988;SDS011;6054;50.966;7.094;2024-02-26T12:48:54;6.18;;;2.17;;
11988;SDS011;6054;50.966;7.094;2024-02-26T12:51:24;2.15;;;1.90;;
11988;SDS011;6054;50.966;7.094;2024-02-26T12:53:52;3.45;;;1.70;;
11988;SDS011;6054;50.966;7.094;2024-02-26T12:56:19;2.22;;;2.03;;
11988;SDS011;6054;50.966;7.094;2024-02-26T12:58:47;2.67;;;1.90;;
11988;SDS011;6054;50.966;7.094;2024-02-26T13:01:17;2.10;;;1.77;;
11988;SDS011;6054;50.966;7.094;2024-02-26T13:03:47;2.88;;;1.90;;
11988;SDS011;6054;50.966;7.094;2024-02-26T13:06:15;2.20;;;1.88;;
11988;SDS011;6054;50.966;7.094;2024-02-26T13:08:44;3.15;;;1.90;;
11988;SDS011;6054;50.966;7.094;2024-02-26T13:11:12;4.57;;;1.92;;
11988;SDS011;6054;50.966;7.094;2024-02-26T13:13:39;2.65;;;2.13;;
11988;SDS011;6054;50.966;7.094;2024-02-26T13:16:07;2.60;;;1.75;;
11988;SDS011;6054;50.966;7.094;2024-02-26T13:18:35;2.53;;;2.33;;
11988;SDS011;6054;50.966;7.094;2024-02-26T13:21:11;2.42;;;1.80;;
11988;SDS011;6054;50.966;7.094;2024-02-26T13:23:40;2.67;;;2.35;;
11988;SDS011;6054;50.966;7.094;2024-02-26T13:26:11;3.92;;;2.35;;
11988;SDS011;6054;50.966;7.094;2024-02-26T13:28:39;3.03;;;2.10;;
11988;SDS011;6054;50.966;7.094;2024-02-26T13:31:06;3.10;;;2.40;;
11988;SDS011;6054;50.966;7.094;2024-02-26T13:33:34;2.35;;;2.15;;
11988;SDS011;6054;50.966;7.094;2024-02-26T13:36:02;2.58;;;2.30;;
11988;SDS011;6054;50.966;7.094;2024-02-26T13:38:30;3.35;;;2.13;;
11988;SDS011;6054;50.966;7.094;2024-02-26T13:40:57;3.53;;;2.40;;
11988;SDS011;6054;50.966;7.094;2024-02-26T13:43:25;2.90;;;2.28;;
11988;SDS011;6054;50.966;7.094;2024-02-26T13:45:52;3.53;;;2.65;;
11988;SDS011;6054;50.966;7.094;2024-02-26T13:48:19;4.88;;;3.17;;
11988;SDS011;6054;50.966;7.094;2024-02-26T13:50:45;4.78;;;2.80;;
11988;SDS011;6054;50.966;7.094;2024-02-26T13:53:12;5.85;;;2.60;;
11988;SDS011;6054;50.966;7.094;2024-02-26T13:55:40;3.00;;;2.70;;
11988;SDS011;6054;50.966;7.094;2024-02-26T13:58:08;3.28;;;2.55;;
11988;SDS011;6054;50.966;7.094;2024-02-26T14:00:39;3.72;;;3.00;;
11988;SDS011;6054;50.966;7.094;2024-02-26T14:03:06;2.72;;;2.45;;
11988;SDS011;6054;50.966;7.094;2024-02-26T14:05:33;4.60;;;2.78;;
11988;SDS011;6054;50.966;7.094;2024-02-26T14:08:00;3.85;;;3.05;;
11988;SDS011;6054;50.966;7.094;2024-02-26T14:10:28;3.20;;;2.90;;
11988;SDS011;6054;50.966;7.094;2024-02-26T14:12:56;3.10;;;2.80;;
11988;SDS011;6054;50.966;7.094;2024-02-26T14:15:23;3.65;;;3.20;;
11988;SDS011;6054;50.966;7.094;2024-02-26T14:17:52;4.68;;;3.20;;
11988;SDS011;6054;50.966;7.094;2024-02-26T14:20:21;5.40;;;3.10;;
11988;SDS011;6054;50.966;7.094;2024-02-26T14:22:48;3.42;;;3.13;;
11988;SDS011;6054;50.966;7.094;2024-02-26T14:25:15;3.65;;;2.97;;
11988;SDS011;6054;50.966;7.094;2024-02-26T14:27:41;3.33;;;2.72;;
11988;SDS011;6054;50.966;7.094;2024-02-26T14:30:09;4.05;;;2.72;;
11988;SDS011;6054;50.966;7.094;2024-02-26T14:32:36;4.22;;;3.00;;
11988;SDS011;6054;50.966;7.094;2024-02-26T14:35:06;4.25;;;3.22;;
11988;SDS011;6054;50.966;7.094;2024-02-26T14:37:34;4.50;;;3.22;;
11988;SDS011;6054;50.966;7.094;2024-02-26T14:40:01;7.13;;;3.55;;
11988;SDS011;6054;50.966;7.094;2024-02-26T14:42:28;4.05;;;3.28;;
11988;SDS011;6054;50.966;7.094;2024-02-26T14:44:55;3.95;;;3.55;;
11988;SDS011;6054;50.966;7.094;2024-02-26T14:47:21;4.60;;;3.75;;
11988;SDS011;6054;50.966;7.094;2024-02-26T14:49:48;5.30;;;3.80;;
11988;SDS011;6054;50.966;7.094;2024-02-26T14:52:18;6.60;;;4.22;;
11988;SDS011;6054;50.966;7.094;2024-02-26T14:54:45;5.10;;;4.25;;
11988;SDS011;6054;50.966;7.094;2024-02-26T14:57:11;6.20;;;4.18;;
11988;SDS011;6054;50.966;7.094;2024-02-26T14:59:38;4.90;;;4.22;;
11988;SDS011;6054;50.966;7.094;2024-02-26T15:02:05;5.30;;;4.00;;
11988;SDS011;6054;50.966;7.094;2024-02-26T15:04:34;5.03;;;4.22;;